sensor_id;sensor_type;location;lat;lon;timestamp;pressure;altitude;pressure_sealevel;temperature;humidity
81909;BME280;71372;43.514;1.512;2024-01-11T00:00:41;100501.13;;;3.59;78.42
81909;BME280;71372;43.514;1.512;2024-01-11T00:03:07;100494.06;;;3.61;78.39
81909;BME280;71372;43.514;1.512;2024-01-11T00:05:33;100502.81;;;3.63;78.61
81909;BME280;71372;43.514;1.512;2024-01-11T00:07:59;100506.28;;;3.65;77.78
81909;BME280;71372;43.514;1.512;2024-01-11T00:10:25;100499.31;;;3.63;78.57
81909;BME280;71372;43.514;1.512;2024-01-11T00:12:51;100498.41;;;3.64;78.10
81909;BME280;71372;43.514;1.512;2024-01-11T00:15:17;100499.28;;;3.64;78.62
81909;BME280;71372;43.514;1.512;2024-01-11T00:17:43;100497.50;;;3.66;77.92
81909;BME280;71372;43.514;1.512;2024-01-11T00:20:10;100500.16;;;3.65;78.04
81909;BME280;71372;43.514;1.512;2024-01-11T00:22:36;100498.38;;;3.67;77.77
81909;BME280;71372;43.514;1.512;2024-01-11T00:25:03;100507.16;;;3.67;78.45
81909;BME280;71372;43.514;1.512;2024-01-11T00:27:29;100506.28;;;3.65;78.13
81909;BME280;71372;43.514;1.512;2024-01-11T00:29:55;100509.81;;;3.64;78.28
81909;BME280;71372;43.514;1.512;2024-01-11T00:32:21;100509.84;;;3.63;78.30
81909;BME280;71372;43.514;1.512;2024-01-11T00:34:48;100509.94;;;3.57;78.66
81909;BME280;71372;43.514;1.512;2024-01-11T00:37:13;100502.03;;;3.57;78.18
81909;BME280;71372;43.514;1.512;2024-01-11T00:39:39;100506.41;;;3.58;78.15
81909;BME280;71372;43.514;1.512;2024-01-11T00:42:05;100516.06;;;3.57;78.23
81909;BME280;71372;43.514;1.512;2024-01-11T00:44:31;100517.78;;;3.60;78.78
81909;BME280;71372;43.514;1.512;2024-01-11T00:46:58;100516.00;;;3.62;78.70
81909;BME280;71372;43.514;1.512;2024-01-11T00:49:24;100506.34;;;3.62;78.42
81909;BME280;71372;43.514;1.512;2024-01-11T00:51:50;100509.91;;;3.58;78.62
81909;BME280;71372;43.514;1.512;2024-01-11T00:54:16;100515.19;;;3.55;78.88
81909;BME280;71372;43.514;1.512;2024-01-11T00:56:42;100505.66;;;3.48;79.17
81909;BME280;71372;43.514;1.512;2024-01-11T00:59:08;100511.84;;;3.44;79.09
81909;BME280;71372;43.514;1.512;2024-01-11T01:01:34;100512.75;;;3.40;79.34
81909;BME280;71372;43.514;1.512;2024-01-11T01:04:00;100513.69;;;3.36;79.14
81909;BME280;71372;43.514;1.512;2024-01-11T01:06:25;100512.78;;;3.38;79.41
81909;BME280;71372;43.514;1.512;2024-01-11T01:08:51;100514.59;;;3.30;79.37
81909;BME280;71372;43.514;1.512;2024-01-11T01:11:17;100512.00;;;3.29;79.91
81909;BME280;71372;43.514;1.512;2024-01-11T01:13:43;100510.22;;;3.29;80.53
81909;BME280;71372;43.514;1.512;2024-01-11T01:16:09;100513.72;;;3.33;79.99
81909;BME280;71372;43.514;1.512;2024-01-11T01:18:35;100518.09;;;3.31;80.04
81909;BME280;71372;43.514;1.512;2024-01-11T01:21:01;100510.22;;;3.31;80.07
81909;BME280;71372;43.514;1.512;2024-01-11T01:23:27;100517.31;;;3.26;80.07
81909;BME280;71372;43.514;1.512;2024-01-11T01:25:53;100516.38;;;3.30;79.84
81909;BME280;71372;43.514;1.512;2024-01-11T01:28:19;100518.97;;;3.34;79.72
81909;BME280;71372;43.514;1.512;2024-01-11T01:30:45;100522.53;;;3.29;80.14
81909;BME280;71372;43.514;1.512;2024-01-11T01:33:10;100531.34;;;3.25;79.95
81909;BME280;71372;43.514;1.512;2024-01-11T01:35:36;100530.56;;;3.15;80.44
81909;BME280;71372;43.514;1.512;2024-01-11T01:38:02;100530.59;;;3.13;80.46
81909;BME280;71372;43.514;1.512;2024-01-11T01:40:30;100521.88;;;3.05;81.17
81909;BME280;71372;43.514;1.512;2024-01-11T01:42:59;100524.53;;;3.05;80.73
81909;BME280;71372;43.514;1.512;2024-01-11T01:45:28;100527.13;;;3.10;81.03
81909;BME280;71372;43.514;1.512;2024-01-11T01:47:55;100535.03;;;3.05;80.96
81909;BME280;71372;43.514;1.512;2024-01-11T01:50:21;100533.31;;;3.03;81.33
81909;BME280;71372;43.514;1.512;2024-01-11T01:52:48;100537.69;;;3.04;80.80
81909;BME280;71372;43.514;1.512;2024-01-11T01:55:14;100545.56;;;3.08;80.78
81909;BME280;71372;43.514;1.512;2024-01-11T01:57:41;100549.03;;;3.12;80.48
81909;BME280;71372;43.514;1.512;2024-01-11T02:00:10;100553.41;;;3.11;80.79
81909;BME280;71372;43.514;1.512;2024-01-11T02:02:39;100553.38;;;3.14;80.80
81909;BME280;71372;43.514;1.512;2024-01-11T02:05:06;100551.59;;;3.16;80.79
81909;BME280;71372;43.514;1.512;2024-01-11T02:07:32;100559.44;;;3.19;80.25
81909;BME280;71372;43.514;1.512;2024-01-11T02:09:58;100562.91;;;3.25;79.83
81909;BME280;71372;43.514;1.512;2024-01-11T02:12:25;100562.91;;;3.25;80.12
81909;BME280;71372;43.514;1.512;2024-01-11T02:14:53;100573.41;;;3.28;79.93
81909;BME280;71372;43.514;1.512;2024-01-11T02:17:19;100561.09;;;3.30;80.53
81909;BME280;71372;43.514;1.512;2024-01-11T02:19:46;100565.50;;;3.29;80.38
81909;BME280;71372;43.514;1.512;2024-01-11T02:22:24;100561.94;;;3.35;79.50
81909;BME280;71372;43.514;1.512;2024-01-11T02:24:54;100566.28;;;3.37;79.63
81909;BME280;71372;43.514;1.512;2024-01-11T02:27:20;100571.50;;;3.40;79.83
81909;BME280;71372;43.514;1.512;2024-01-11T02:29:46;100568.88;;;3.43;79.89
81909;BME280;71372;43.514;1.512;2024-01-11T02:32:12;100567.94;;;3.47;80.02
81909;BME280;71372;43.514;1.512;2024-01-11T02:34:38;100569.69;;;3.48;79.80
81909;BME280;71372;43.514;1.512;2024-01-11T02:37:05;100575.78;;;3.50;79.26
81909;BME280;71372;43.514;1.512;2024-01-11T02:39:31;100571.38;;;3.52;80.13
81909;BME280;71372;43.514;1.512;2024-01-11T02:41:57;100574.88;;;3.53;79.88
81909;BME280;71372;43.514;1.512;2024-01-11T02:44:24;100575.72;;;3.55;79.70
81909;BME280;71372;43.514;1.512;2024-01-11T02:46:50;100577.50;;;3.56;79.24
81909;BME280;71372;43.514;1.512;2024-01-11T02:49:16;100579.22;;;3.59;79.67
81909;BME280;71372;43.514;1.512;2024-01-11T02:51:42;100574.81;;;3.59;79.71
81909;BME280;71372;43.514;1.512;2024-01-11T02:54:08;100577.47;;;3.59;79.37
81909;BME280;71372;43.514;1.512;2024-01-11T02:56:34;100580.09;;;3.59;79.82
81909;BME280;71372;43.514;1.512;2024-01-11T02:59:00;100588.84;;;3.60;79.14
81909;BME280;71372;43.514;1.512;2024-01-11T03:01:26;100586.22;;;3.60;79.76
81909;BME280;71372;43.514;1.512;2024-01-11T03:03:52;100581.81;;;3.60;79.48
81909;BME280;71372;43.514;1.512;2024-01-11T03:06:19;100582.69;;;3.62;79.03
81909;BME280;71372;43.514;1.512;2024-01-11T03:08:48;100587.06;;;3.63;79.14
81909;BME280;71372;43.514;1.512;2024-01-11T03:11:14;100583.53;;;3.64;79.90
81909;BME280;71372;43.514;1.512;2024-01-11T03:13:40;100587.00;;;3.66;78.99
81909;BME280;71372;43.514;1.512;2024-01-11T03:16:06;100578.25;;;3.64;79.15
81909;BME280;71372;43.514;1.512;2024-01-11T03:18:32;100580.88;;;3.66;79.72
81909;BME280;71372;43.514;1.512;2024-01-11T03:20:58;100582.63;;;3.67;79.52
81909;BME280;71372;43.514;1.512;2024-01-11T03:23:24;100587.03;;;3.68;79.22
81909;BME280;71372;43.514;1.512;2024-01-11T03:25:50;100584.38;;;3.69;80.07
81909;BME280;71372;43.514;1.512;2024-01-11T03:28:16;100589.66;;;3.68;80.01
81909;BME280;71372;43.514;1.512;2024-01-11T03:30:43;100588.75;;;3.69;79.40
81909;BME280;71372;43.514;1.512;2024-01-11T03:33:09;100592.25;;;3.69;79.83
81909;BME280;71372;43.514;1.512;2024-01-11T03:35:35;100594.00;;;3.70;79.33
81909;BME280;71372;43.514;1.512;2024-01-11T03:38:03;100591.38;;;3.70;79.81
81909;BME280;71372;43.514;1.512;2024-01-11T03:40:28;100587.84;;;3.71;79.51
81909;BME280;71372;43.514;1.512;2024-01-11T03:42:54;100580.81;;;3.72;79.32
81909;BME280;71372;43.514;1.512;2024-01-11T03:45:20;100585.25;;;3.68;79.29
81909;BME280;71372;43.514;1.512;2024-01-11T03:47:46;100587.91;;;3.65;79.70
81909;BME280;71372;43.514;1.512;2024-01-11T03:50:12;100591.50;;;3.60;79.95
81909;BME280;71372;43.514;1.512;2024-01-11T03:52:39;100589.78;;;3.56;79.60
81909;BME280;71372;43.514;1.512;2024-01-11T03:55:05;100578.41;;;3.52;80.23
81909;BME280;71372;43.514;1.512;2024-01-11T03:57:32;100584.59;;;3.48;79.83
81909;BME280;71372;43.514;1.512;2024-01-11T03:59:58;100584.59;;;3.48;80.31
81909;BME280;71372;43.514;1.512;2024-01-11T04:02:25;100587.22;;;3.48;80.30
81909;BME280;71372;43.514;1.512;2024-01-11T04:04:51;100584.56;;;3.49;80.26
81909;BME280;71372;43.514;1.512;2024-01-11T04:07:17;100593.31;;;3.53;79.73
81909;BME280;71372;43.514;1.512;2024-01-11T04:09:42;100601.19;;;3.56;79.85
81909;BME280;71372;43.514;1.512;2024-01-11T04:12:08;100601.19;;;3.56;80.18
81909;BME280;71372;43.514;1.512;2024-01-11T04:14:38;100595.88;;;3.59;80.25
81909;BME280;71372;43.514;1.512;2024-01-11T04:17:05;100601.16;;;3.59;80.49
81909;BME280;71372;43.514;1.512;2024-01-11T04:19:31;100604.66;;;3.58;80.38
81909;BME280;71372;43.514;1.512;2024-01-11T04:21:57;100598.56;;;3.53;80.12
81909;BME280;71372;43.514;1.512;2024-01-11T04:24:23;100608.25;;;3.51;80.34
81909;BME280;71372;43.514;1.512;2024-01-11T04:26:49;100612.63;;;3.52;80.11
81909;BME280;71372;43.514;1.512;2024-01-11T04:29:15;100610.03;;;3.49;80.39
81909;BME280;71372;43.514;1.512;2024-01-11T04:31:40;100612.66;;;3.49;80.22
81909;BME280;71372;43.514;1.512;2024-01-11T04:34:06;100612.63;;;3.52;80.40
81909;BME280;71372;43.514;1.512;2024-01-11T04:36:39;100610.84;;;3.52;80.02
81909;BME280;71372;43.514;1.512;2024-01-11T04:39:05;100611.75;;;3.51;79.96
81909;BME280;71372;43.514;1.512;2024-01-11T04:41:35;100606.47;;;3.51;80.69
81909;BME280;71372;43.514;1.512;2024-01-11T04:44:02;100608.28;;;3.48;80.33
81909;BME280;71372;43.514;1.512;2024-01-11T04:46:28;100610.94;;;3.46;80.95
81909;BME280;71372;43.514;1.512;2024-01-11T04:48:54;100610.94;;;3.46;80.55
81909;BME280;71372;43.514;1.512;2024-01-11T04:51:20;100613.59;;;3.45;79.87
81909;BME280;71372;43.514;1.512;2024-01-11T04:53:46;100619.75;;;3.44;80.27
81909;BME280;71372;43.514;1.512;2024-01-11T04:56:16;100619.72;;;3.42;80.75
81909;BME280;71372;43.514;1.512;2024-01-11T04:58:43;100626.84;;;3.34;80.51
81909;BME280;71372;43.514;1.512;2024-01-11T05:01:13;100633.88;;;3.34;80.55
81909;BME280;71372;43.514;1.512;2024-01-11T05:03:39;100636.47;;;3.37;80.81
81909;BME280;71372;43.514;1.512;2024-01-11T05:06:05;100644.41;;;3.32;80.96
81909;BME280;71372;43.514;1.512;2024-01-11T05:08:31;100639.13;;;3.35;80.51
81909;BME280;71372;43.514;1.512;2024-01-11T05:10:57;100630.38;;;3.30;80.40
81909;BME280;71372;43.514;1.512;2024-01-11T05:13:23;100643.50;;;3.35;80.47
81909;BME280;71372;43.514;1.512;2024-01-11T05:15:49;100640.00;;;3.34;80.81
81909;BME280;71372;43.514;1.512;2024-01-11T05:18:15;100644.34;;;3.37;80.26
81909;BME280;71372;43.514;1.512;2024-01-11T05:20:41;100643.50;;;3.35;80.36
81909;BME280;71372;43.514;1.512;2024-01-11T05:23:07;100646.19;;;3.32;80.31
81909;BME280;71372;43.514;1.512;2024-01-11T05:25:34;100646.19;;;3.29;80.61
81909;BME280;71372;43.514;1.512;2024-01-11T05:28:01;100646.16;;;3.30;80.03
81909;BME280;71372;43.514;1.512;2024-01-11T05:30:27;100648.81;;;3.32;80.93
81909;BME280;71372;43.514;1.512;2024-01-11T05:32:54;100653.16;;;3.31;80.31
81909;BME280;71372;43.514;1.512;2024-01-11T05:35:20;100646.16;;;3.30;79.95
81909;BME280;71372;43.514;1.512;2024-01-11T05:37:46;100647.91;;;3.30;80.34
81909;BME280;71372;43.514;1.512;2024-01-11T05:40:12;100640.94;;;3.26;80.34
81909;BME280;71372;43.514;1.512;2024-01-11T05:42:39;100651.50;;;3.24;80.58
81909;BME280;71372;43.514;1.512;2024-01-11T05:45:05;100658.50;;;3.23;81.07
81909;BME280;71372;43.514;1.512;2024-01-11T05:47:31;100656.78;;;3.19;81.00
81909;BME280;71372;43.514;1.512;2024-01-11T05:49:57;100658.53;;;3.19;80.15
81909;BME280;71372;43.514;1.512;2024-01-11T05:52:23;100661.19;;;3.20;80.04
81909;BME280;71372;43.514;1.512;2024-01-11T05:54:49;100665.56;;;3.18;80.82
81909;BME280;71372;43.514;1.512;2024-01-11T05:57:15;100658.59;;;3.14;81.22
81909;BME280;71372;43.514;1.512;2024-01-11T05:59:45;100663.81;;;3.16;81.00
81909;BME280;71372;43.514;1.512;2024-01-11T06:02:12;100668.22;;;3.15;80.45
81909;BME280;71372;43.514;1.512;2024-01-11T06:04:39;100671.72;;;3.14;80.62
81909;BME280;71372;43.514;1.512;2024-01-11T06:07:05;100669.09;;;3.16;81.08
81909;BME280;71372;43.514;1.512;2024-01-11T06:09:31;100677.88;;;3.13;80.81
81909;BME280;71372;43.514;1.512;2024-01-11T06:11:57;100676.13;;;3.12;80.75
81909;BME280;71372;43.514;1.512;2024-01-11T06:14:23;100684.00;;;3.14;80.37
81909;BME280;71372;43.514;1.512;2024-01-11T06:16:49;100686.63;;;3.15;80.59
81909;BME280;71372;43.514;1.512;2024-01-11T06:19:15;100680.50;;;3.13;81.04
81909;BME280;71372;43.514;1.512;2024-01-11T06:21:41;100684.91;;;3.11;81.17
81909;BME280;71372;43.514;1.512;2024-01-11T06:24:07;100690.19;;;3.11;81.25
81909;BME280;71372;43.514;1.512;2024-01-11T06:26:33;100698.03;;;3.14;80.92
81909;BME280;71372;43.514;1.512;2024-01-11T06:28:59;100696.25;;;3.16;81.07
81909;BME280;71372;43.514;1.512;2024-01-11T06:31:25;100699.75;;;3.17;80.93
81909;BME280;71372;43.514;1.512;2024-01-11T06:33:51;100697.13;;;3.18;81.02
81909;BME280;71372;43.514;1.512;2024-01-11T06:36:17;100705.88;;;3.22;80.94
81909;BME280;71372;43.514;1.512;2024-01-11T06:38:43;100704.97;;;3.25;80.80
81909;BME280;71372;43.514;1.512;2024-01-11T06:41:09;100712.84;;;3.28;80.52
81909;BME280;71372;43.514;1.512;2024-01-11T06:43:35;100716.31;;;3.30;80.90
81909;BME280;71372;43.514;1.512;2024-01-11T06:46:04;100718.94;;;3.31;81.13
81909;BME280;71372;43.514;1.512;2024-01-11T06:48:31;100729.47;;;3.31;80.62
81909;BME280;71372;43.514;1.512;2024-01-11T06:50:57;100719.81;;;3.33;80.44
81909;BME280;71372;43.514;1.512;2024-01-11T06:53:23;100723.34;;;3.31;80.46
81909;BME280;71372;43.514;1.512;2024-01-11T06:55:49;100728.59;;;3.31;80.48
81909;BME280;71372;43.514;1.512;2024-01-11T06:58:15;100724.19;;;3.31;80.87
81909;BME280;71372;43.514;1.512;2024-01-11T07:00:41;100725.97;;;3.29;80.44
81909;BME280;71372;43.514;1.512;2024-01-11T07:03:11;100733.84;;;3.31;80.49
81909;BME280;71372;43.514;1.512;2024-01-11T07:05:37;100733.00;;;3.29;80.48
81909;BME280;71372;43.514;1.512;2024-01-11T07:08:04;100735.63;;;3.29;80.22
81909;BME280;71372;43.514;1.512;2024-01-11T07:10:29;100732.09;;;3.30;80.61
81909;BME280;71372;43.514;1.512;2024-01-11T07:12:55;100742.63;;;3.33;80.19
81909;BME280;71372;43.514;1.512;2024-01-11T07:15:21;100740.00;;;3.33;80.62
81909;BME280;71372;43.514;1.512;2024-01-11T07:17:48;100736.47;;;3.31;80.09
81909;BME280;71372;43.514;1.512;2024-01-11T07:20:14;100737.38;;;3.28;80.96
81909;BME280;71372;43.514;1.512;2024-01-11T07:22:42;100741.78;;;3.28;80.49
81909;BME280;71372;43.514;1.512;2024-01-11T07:25:08;100742.66;;;3.27;80.91
81909;BME280;71372;43.514;1.512;2024-01-11T07:27:34;100752.34;;;3.23;80.11
81909;BME280;71372;43.514;1.512;2024-01-11T07:30:01;100758.50;;;3.19;80.84
81909;BME280;71372;43.514;1.512;2024-01-11T07:32:28;100759.41;;;3.16;80.73
81909;BME280;71372;43.514;1.512;2024-01-11T07:34:54;100775.16;;;3.18;81.13
81909;BME280;71372;43.514;1.512;2024-01-11T07:37:20;100789.19;;;3.21;80.23
81909;BME280;71372;43.514;1.512;2024-01-11T07:39:46;100787.44;;;3.19;80.26
81909;BME280;71372;43.514;1.512;2024-01-11T07:42:14;100790.06;;;3.19;80.77
81909;BME280;71372;43.514;1.512;2024-01-11T07:44:40;100789.19;;;3.21;81.05
81909;BME280;71372;43.514;1.512;2024-01-11T07:47:05;100783.06;;;3.22;80.31
81909;BME280;71372;43.514;1.512;2024-01-11T07:49:32;100789.19;;;3.21;80.63
81909;BME280;71372;43.514;1.512;2024-01-11T07:51:58;100793.56;;;3.19;80.74
81909;BME280;71372;43.514;1.512;2024-01-11T07:54:24;100788.34;;;3.16;80.69
81909;BME280;71372;43.514;1.512;2024-01-11T07:56:49;100792.72;;;3.16;80.23
81909;BME280;71372;43.514;1.512;2024-01-11T07:59:15;100795.34;;;3.16;80.74
81909;BME280;71372;43.514;1.512;2024-01-11T08:01:41;100795.38;;;3.13;80.10
81909;BME280;71372;43.514;1.512;2024-01-11T08:04:07;100792.78;;;3.10;80.03
81909;BME280;71372;43.514;1.512;2024-01-11T08:06:33;100804.16;;;3.07;80.52
81909;BME280;71372;43.514;1.512;2024-01-11T08:08:59;100803.31;;;3.05;80.33
81909;BME280;71372;43.514;1.512;2024-01-11T08:11:25;100806.81;;;3.04;80.14
81909;BME280;71372;43.514;1.512;2024-01-11T08:13:51;100813.81;;;3.05;79.87
81909;BME280;71372;43.514;1.512;2024-01-11T08:16:20;100817.31;;;3.07;80.44
81909;BME280;71372;43.514;1.512;2024-01-11T08:18:46;100819.09;;;3.08;79.82
81909;BME280;71372;43.514;1.512;2024-01-11T08:21:14;100813.84;;;3.08;79.89
81909;BME280;71372;43.514;1.512;2024-01-11T08:23:41;100823.47;;;3.09;80.13
81909;BME280;71372;43.514;1.512;2024-01-11T08:26:14;100829.63;;;3.08;79.83
81909;BME280;71372;43.514;1.512;2024-01-11T08:28:40;100828.72;;;3.05;79.84
81909;BME280;71372;43.514;1.512;2024-01-11T08:31:07;100827.00;;;3.01;79.88
81909;BME280;71372;43.514;1.512;2024-01-11T08:33:33;100840.16;;;3.02;80.72
81909;BME280;71372;43.514;1.512;2024-01-11T08:35:59;100844.50;;;3.05;80.10
81909;BME280;71372;43.514;1.512;2024-01-11T08:38:25;100845.38;;;3.11;80.22
81909;BME280;71372;43.514;1.512;2024-01-11T08:40:51;100843.56;;;3.19;80.16
81909;BME280;71372;43.514;1.512;2024-01-11T08:43:17;100848.78;;;3.27;80.01
81909;BME280;71372;43.514;1.512;2024-01-11T08:45:43;100839.97;;;3.34;80.25
81909;BME280;71372;43.514;1.512;2024-01-11T08:48:15;100850.44;;;3.42;80.42
81909;BME280;71372;43.514;1.512;2024-01-11T08:50:41;100853.91;;;3.50;80.25
81909;BME280;71372;43.514;1.512;2024-01-11T08:53:07;100856.50;;;3.56;80.11
81909;BME280;71372;43.514;1.512;2024-01-11T08:55:33;100867.88;;;3.60;80.15
81909;BME280;71372;43.514;1.512;2024-01-11T08:57:59;100856.44;;;3.65;80.64
81909;BME280;71372;43.514;1.512;2024-01-11T09:00:26;100863.41;;;3.72;80.30
81909;BME280;71372;43.514;1.512;2024-01-11T09:02:52;100851.97;;;3.79;80.29
81909;BME280;71372;43.514;1.512;2024-01-11T09:05:18;100858.91;;;3.87;80.20
81909;BME280;71372;43.514;1.512;2024-01-11T09:07:45;100864.13;;;3.90;79.91
81909;BME280;71372;43.514;1.512;2024-01-11T09:10:12;100861.44;;;3.99;79.91
81909;BME280;71372;43.514;1.512;2024-01-11T09:12:38;100867.56;;;4.04;80.13
81909;BME280;71372;43.514;1.512;2024-01-11T09:15:04;100866.59;;;4.11;80.11
81909;BME280;71372;43.514;1.512;2024-01-11T09:17:30;100868.34;;;4.15;79.88
81909;BME280;71372;43.514;1.512;2024-01-11T09:19:56;100869.09;;;4.25;79.12
81909;BME280;71372;43.514;1.512;2024-01-11T09:22:22;100861.13;;;4.32;79.81
81909;BME280;71372;43.514;1.512;2024-01-11T09:24:48;100858.38;;;4.45;79.12
81909;BME280;71372;43.514;1.512;2024-01-11T09:27:14;100862.78;;;4.44;79.31
81909;BME280;71372;43.514;1.512;2024-01-11T09:29:44;100868.94;;;4.45;78.14
81909;BME280;71372;43.514;1.512;2024-01-11T09:32:11;100877.63;;;4.53;78.03
81909;BME280;71372;43.514;1.512;2024-01-11T09:34:37;100868.72;;;4.66;78.16
81909;BME280;71372;43.514;1.512;2024-01-11T09:37:04;100872.06;;;4.80;77.96
81909;BME280;71372;43.514;1.512;2024-01-11T09:39:30;100885.06;;;4.94;77.44
81909;BME280;71372;43.514;1.512;2024-01-11T09:42:06;100882.28;;;5.06;77.08
81909;BME280;71372;43.514;1.512;2024-01-11T09:44:33;100882.13;;;5.20;77.16
81909;BME280;71372;43.514;1.512;2024-01-11T09:47:00;100890.78;;;5.31;77.17
81909;BME280;71372;43.514;1.512;2024-01-11T09:49:30;100889.69;;;5.44;77.08
81909;BME280;71372;43.514;1.512;2024-01-11T09:51:56;100900.13;;;5.56;76.78
81909;BME280;71372;43.514;1.512;2024-01-11T09:54:23;100907.00;;;5.67;76.42
81909;BME280;71372;43.514;1.512;2024-01-11T09:56:50;100904.28;;;5.73;75.92
81909;BME280;71372;43.514;1.512;2024-01-11T09:59:35;100905.09;;;5.76;75.61
81909;BME280;71372;43.514;1.512;2024-01-11T10:02:02;100904.19;;;5.80;75.40
81909;BME280;71372;43.514;1.512;2024-01-11T10:04:28;100900.63;;;5.80;75.10
81909;BME280;71372;43.514;1.512;2024-01-11T10:06:55;100898.13;;;5.72;75.48
81909;BME280;71372;43.514;1.512;2024-01-11T10:09:22;100905.25;;;5.66;75.01
81909;BME280;71372;43.514;1.512;2024-01-11T10:11:48;100909.63;;;5.67;75.41
81909;BME280;71372;43.514;1.512;2024-01-11T10:14:16;100912.25;;;5.70;75.19
81909;BME280;71372;43.514;1.512;2024-01-11T10:16:42;100915.69;;;5.75;74.69
81909;BME280;71372;43.514;1.512;2024-01-11T10:19:09;100917.34;;;5.83;74.73
81909;BME280;71372;43.514;1.512;2024-01-11T10:21:39;100909.28;;;5.94;74.95
81909;BME280;71372;43.514;1.512;2024-01-11T10:24:05;100912.63;;;6.05;74.16
81909;BME280;71372;43.514;1.512;2024-01-11T10:26:31;100910.69;;;6.15;73.31
81909;BME280;71372;43.514;1.512;2024-01-11T10:29:01;100901.75;;;6.24;73.29
81909;BME280;71372;43.514;1.512;2024-01-11T10:31:28;100897.25;;;6.30;73.21
81909;BME280;71372;43.514;1.512;2024-01-11T10:33:57;100902.34;;;6.41;73.14
81909;BME280;71372;43.514;1.512;2024-01-11T10:36:23;100896.09;;;6.45;72.76
81909;BME280;71372;43.514;1.512;2024-01-11T10:38:49;100894.19;;;6.53;72.32
81909;BME280;71372;43.514;1.512;2024-01-11T10:41:18;100886.78;;;6.70;72.01
81909;BME280;71372;43.514;1.512;2024-01-11T10:43:45;100885.63;;;6.85;71.92
81909;BME280;71372;43.514;1.512;2024-01-11T10:46:14;100888.09;;;6.94;71.95
81909;BME280;71372;43.514;1.512;2024-01-11T10:48:44;100883.50;;;7.04;71.73
81909;BME280;71372;43.514;1.512;2024-01-11T10:51:12;100880.59;;;7.16;70.98
81909;BME280;71372;43.514;1.512;2024-01-11T10:53:45;100883.88;;;7.27;71.14
81909;BME280;71372;43.514;1.512;2024-01-11T10:56:12;100879.19;;;7.40;71.34
81909;BME280;71372;43.514;1.512;2024-01-11T10:58:41;100879.91;;;7.48;70.97
81909;BME280;71372;43.514;1.512;2024-01-11T11:01:11;100882.81;;;7.75;70.09
81909;BME280;71372;43.514;1.512;2024-01-11T11:03:38;100882.38;;;7.95;69.41
81909;BME280;71372;43.514;1.512;2024-01-11T11:06:05;100883.13;;;8.00;69.41
81909;BME280;71372;43.514;1.512;2024-01-11T11:08:33;100890.16;;;8.01;69.30
81909;BME280;71372;43.514;1.512;2024-01-11T11:11:02;100878.84;;;7.94;68.65
81909;BME280;71372;43.514;1.512;2024-01-11T11:13:31;100884.19;;;7.91;68.87
81909;BME280;71372;43.514;1.512;2024-01-11T11:15:57;100867.34;;;7.95;69.08
81909;BME280;71372;43.514;1.512;2024-01-11T11:18:24;100864.41;;;8.06;68.89
81909;BME280;71372;43.514;1.512;2024-01-11T11:20:51;100864.16;;;8.15;68.55
81909;BME280;71372;43.514;1.512;2024-01-11T11:23:18;100863.94;;;8.24;68.54
81909;BME280;71372;43.514;1.512;2024-01-11T11:25:46;100866.63;;;8.23;68.33
81909;BME280;71372;43.514;1.512;2024-01-11T11:28:12;100869.19;;;8.26;67.81
81909;BME280;71372;43.514;1.512;2024-01-11T11:30:41;100870.94;;;8.27;68.78
81909;BME280;71372;43.514;1.512;2024-01-11T11:33:16;100869.09;;;8.30;68.00
81909;BME280;71372;43.514;1.512;2024-01-11T11:35:42;100866.59;;;8.24;67.30
81909;BME280;71372;43.514;1.512;2024-01-11T11:38:09;100864.91;;;8.21;67.59
81909;BME280;71372;43.514;1.512;2024-01-11T11:40:42;100862.63;;;8.06;67.76
81909;BME280;71372;43.514;1.512;2024-01-11T11:43:11;100864.56;;;8.00;68.11
81909;BME280;71372;43.514;1.512;2024-01-11T11:45:37;100856.13;;;7.84;67.76
81909;BME280;71372;43.514;1.512;2024-01-11T11:51:15;100859.59;;;7.49;67.78
81909;BME280;71372;43.514;1.512;2024-01-11T11:53:42;100858.16;;;7.34;67.62
81909;BME280;71372;43.514;1.512;2024-01-11T11:56:09;100860.09;;;7.26;67.97
81909;BME280;71372;43.514;1.512;2024-01-11T11:58:36;100855.84;;;7.17;68.14
81909;BME280;71372;43.514;1.512;2024-01-11T12:01:03;100850.72;;;7.11;68.00
81909;BME280;71372;43.514;1.512;2024-01-11T12:03:31;100849.94;;;7.04;67.97
81909;BME280;71372;43.514;1.512;2024-01-11T12:05:58;100856.19;;;7.02;67.98
81909;BME280;71372;43.514;1.512;2024-01-11T12:08:25;100857.06;;;7.02;68.17
81909;BME280;71372;43.514;1.512;2024-01-11T12:10:51;100859.78;;;6.98;68.75
81909;BME280;71372;43.514;1.512;2024-01-11T12:13:18;100849.16;;;7.01;69.07
81909;BME280;71372;43.514;1.512;2024-01-11T12:15:44;100848.34;;;6.96;68.73
81909;BME280;71372;43.514;1.512;2024-01-11T12:18:10;100844.31;;;6.78;68.68
81909;BME280;71372;43.514;1.512;2024-01-11T12:20:36;100846.28;;;6.68;68.72
81909;BME280;71372;43.514;1.512;2024-01-11T12:23:02;100842.03;;;6.60;68.63
81909;BME280;71372;43.514;1.512;2024-01-11T12:25:28;100828.91;;;6.55;68.51
81909;BME280;71372;43.514;1.512;2024-01-11T12:27:55;100836.63;;;6.66;68.78
81909;BME280;71372;43.514;1.512;2024-01-11T12:30:25;100837.25;;;6.79;68.74
81909;BME280;71372;43.514;1.512;2024-01-11T12:32:53;100836.28;;;6.83;68.77
81909;BME280;71372;43.514;1.512;2024-01-11T12:35:19;100833.53;;;6.89;68.61
81909;BME280;71372;43.514;1.512;2024-01-11T12:38:05;100827.25;;;6.93;68.30
81909;BME280;71372;43.514;1.512;2024-01-11T12:40:35;100826.19;;;7.01;67.81
81909;BME280;71372;43.514;1.512;2024-01-11T12:43:05;100827.03;;;7.03;67.90
81909;BME280;71372;43.514;1.512;2024-01-11T12:45:34;100826.00;;;7.09;68.04
81909;BME280;71372;43.514;1.512;2024-01-11T12:48:01;100832.25;;;7.07;67.65
81909;BME280;71372;43.514;1.512;2024-01-11T12:50:30;100836.50;;;7.15;67.39
81909;BME280;71372;43.514;1.512;2024-01-11T12:53:12;100833.88;;;7.14;67.52
81909;BME280;71372;43.514;1.512;2024-01-11T12:56:02;100834.59;;;7.20;66.76
81909;BME280;71372;43.514;1.512;2024-01-11T12:58:29;100833.66;;;7.24;67.36
81909;BME280;71372;43.514;1.512;2024-01-11T13:00:55;100829.09;;;7.29;67.01